createdAt,value
2018-05-25T00:00:36.716Z,18.70
2018-05-25T00:01:36.793Z,18.62
2018-05-25T00:02:36.774Z,18.61
2018-05-25T00:03:36.793Z,18.62
2018-05-25T00:04:36.830Z,18.57
2018-05-25T00:05:36.841Z,18.59
2018-05-25T00:06:36.867Z,18.61
2018-05-25T00:07:36.892Z,18.64
2018-05-25T00:08:36.923Z,18.57
2018-05-25T00:09:36.941Z,18.54
2018-05-25T00:10:36.972Z,18.59
2018-05-25T00:11:36.996Z,18.64
2018-05-25T00:12:37.022Z,18.50
2018-05-25T00:13:37.046Z,18.52
2018-05-25T00:14:37.069Z,18.57
2018-05-25T00:15:37.095Z,18.67
2018-05-25T00:16:37.127Z,18.40
2018-05-25T00:17:37.141Z,18.57
2018-05-25T00:18:37.163Z,18.61
2018-05-25T00:19:37.189Z,18.62
2018-05-25T00:20:37.223Z,18.58
2018-05-25T00:21:37.234Z,18.58
2018-05-25T00:22:37.307Z,18.55
2018-05-25T00:23:37.290Z,18.50
2018-05-25T00:24:37.306Z,18.49
2018-05-25T00:25:37.349Z,18.55
2018-05-25T00:26:37.362Z,18.57
2018-05-25T00:27:37.384Z,18.54
2018-05-25T00:28:37.416Z,18.58
2018-05-25T00:29:37.439Z,18.59
2018-05-25T00:30:37.461Z,18.52
2018-05-25T00:31:37.486Z,18.55
2018-05-25T00:32:37.515Z,18.44
2018-05-25T00:33:37.532Z,18.46
2018-05-25T00:34:37.565Z,18.43
2018-05-25T00:35:37.586Z,18.42
2018-05-25T00:36:37.606Z,18.36
2018-05-25T00:37:37.659Z,18.31
2018-05-25T00:38:37.657Z,18.34
2018-05-25T00:39:37.681Z,18.46
2018-05-25T00:40:37.703Z,18.36
2018-05-25T00:41:37.728Z,18.36
2018-05-25T00:42:37.769Z,18.39
2018-05-25T00:43:37.806Z,18.33
2018-05-25T00:44:37.810Z,18.31
2018-05-25T00:45:37.831Z,18.34
2018-05-25T00:46:37.853Z,18.46
2018-05-25T00:47:37.893Z,18.33
2018-05-25T00:48:37.911Z,18.33
2018-05-25T00:49:37.940Z,18.21
2018-05-25T00:50:37.955Z,18.36
2018-05-25T00:51:37.993Z,18.25
2018-05-25T00:52:38.003Z,18.29
2018-05-25T00:53:38.026Z,18.39
2018-05-25T00:54:38.057Z,18.21
2018-05-25T00:55:38.092Z,18.34
2018-05-25T00:56:38.098Z,18.25
2018-05-25T00:57:38.136Z,18.19
2018-05-25T00:58:38.157Z,18.19
2018-05-25T00:59:38.169Z,18.27
2018-05-25T01:00:38.189Z,18.24
2018-05-25T01:01:38.237Z,17.81
2018-05-25T01:02:38.263Z,17.92
2018-05-25T01:03:38.272Z,18.07
2018-05-25T01:04:38.289Z,18.19
2018-05-25T01:05:38.318Z,18.15
2018-05-25T01:06:38.351Z,18.10
2018-05-25T01:07:38.373Z,17.99
2018-05-25T01:08:38.399Z,18.18
2018-05-25T01:09:38.425Z,18.07
2018-05-25T01:10:38.445Z,18.18
2018-05-25T01:11:38.462Z,18.10
2018-05-25T01:12:38.505Z,18.09
2018-05-25T01:13:38.525Z,18.09
2018-05-25T01:14:38.570Z,18.04
2018-05-25T01:15:38.569Z,18.03
2018-05-25T01:16:38.580Z,18.03
2018-05-25T01:17:38.610Z,17.95
2018-05-25T01:18:38.649Z,17.92
2018-05-25T01:19:38.667Z,17.97
2018-05-25T01:20:38.676Z,18.00
2018-05-25T01:21:38.707Z,17.82
2018-05-25T01:22:38.734Z,17.82
2018-05-25T01:23:38.760Z,17.69
2018-05-25T01:24:38.800Z,17.87
2018-05-25T01:25:38.822Z,17.78
2018-05-25T01:26:38.840Z,17.81
2018-05-25T01:27:38.853Z,17.79
2018-05-25T01:28:38.873Z,17.97
2018-05-25T01:29:38.906Z,17.91
2018-05-25T01:30:38.929Z,17.94
2018-05-25T01:31:39.031Z,17.99
2018-05-25T01:32:38.980Z,18.07
2018-05-25T01:33:38.994Z,18.03
2018-05-25T01:34:39.019Z,18.00
2018-05-25T01:35:39.043Z,18.10
2018-05-25T01:36:39.130Z,18.04
2018-05-25T01:37:39.101Z,17.99
2018-05-25T01:38:39.155Z,18.03
2018-05-25T01:39:39.150Z,17.87
2018-05-25T01:40:39.163Z,17.94
2018-05-25T01:41:39.186Z,17.92
2018-05-25T01:42:39.231Z,17.99
2018-05-25T01:43:39.239Z,17.97
2018-05-25T01:44:39.267Z,17.99
2018-05-25T01:45:39.314Z,17.97
2018-05-25T01:46:39.309Z,17.81
2018-05-25T01:47:39.355Z,17.84
2018-05-25T01:48:39.376Z,17.81
2018-05-25T01:49:39.381Z,17.79
2018-05-25T01:50:39.426Z,17.81
2018-05-25T01:51:39.433Z,17.78
2018-05-25T01:52:39.454Z,17.78
2018-05-25T01:53:39.492Z,17.81
2018-05-25T01:54:39.505Z,17.85
2018-05-25T01:55:39.526Z,17.76
2018-05-25T01:56:39.553Z,17.79
2018-05-25T01:57:39.575Z,17.73
2018-05-25T01:58:39.601Z,17.78
2018-05-25T01:59:39.623Z,17.73
2018-05-25T02:00:39.647Z,17.62
2018-05-25T02:01:39.674Z,17.69
2018-05-25T02:02:39.702Z,17.57
2018-05-25T02:03:39.721Z,17.54
2018-05-25T02:04:39.739Z,17.44
2018-05-25T02:05:39.767Z,17.38
2018-05-25T02:06:39.792Z,17.47
2018-05-25T02:07:39.814Z,17.53
2018-05-25T02:08:39.838Z,17.62
2018-05-25T02:09:39.862Z,17.64
2018-05-25T02:10:39.888Z,17.74
2018-05-25T02:11:39.911Z,17.82
2018-05-25T02:12:39.932Z,17.74
2018-05-25T02:13:39.971Z,17.79
2018-05-25T02:14:39.983Z,17.62
2018-05-25T02:15:40.003Z,17.78
2018-05-25T02:16:40.102Z,17.73
2018-05-25T02:17:40.054Z,17.67
2018-05-25T02:18:40.077Z,17.82
2018-05-25T02:19:40.101Z,17.69
2018-05-25T02:20:40.128Z,17.63
2018-05-25T02:21:40.150Z,17.64
2018-05-25T02:22:40.172Z,17.67
2018-05-25T02:23:40.225Z,17.64
2018-05-25T02:24:40.221Z,17.55
2018-05-25T02:25:40.252Z,17.63
2018-05-25T02:26:40.269Z,17.55
2018-05-25T02:27:40.299Z,17.59
2018-05-25T02:28:40.330Z,17.53
2018-05-25T02:29:40.341Z,17.51
2018-05-25T02:30:40.400Z,17.53
2018-05-25T02:31:40.394Z,17.57
2018-05-25T02:32:40.417Z,17.53
2018-05-25T02:33:40.439Z,17.53
2018-05-25T02:34:40.474Z,17.53
2018-05-25T02:35:40.482Z,17.53
2018-05-25T02:36:40.512Z,17.54
2018-05-25T02:37:40.542Z,17.53
2018-05-25T02:38:40.593Z,17.62
2018-05-25T02:39:40.579Z,17.64
2018-05-25T02:40:40.607Z,17.57
2018-05-25T02:41:40.632Z,17.54
2018-05-25T02:42:40.658Z,17.53
2018-05-25T02:43:40.678Z,17.47
2018-05-25T02:44:40.705Z,17.44
2018-05-25T02:45:40.727Z,17.44
2018-05-25T02:46:40.751Z,17.38
2018-05-25T02:47:40.771Z,17.44
2018-05-25T02:48:40.806Z,17.50
2018-05-25T02:49:40.833Z,17.50
2018-05-25T02:50:40.845Z,17.47
2018-05-25T02:51:40.905Z,17.44
2018-05-25T02:52:40.895Z,17.43
2018-05-25T02:53:40.919Z,17.47
2018-05-25T02:54:40.937Z,17.50
2018-05-25T02:55:40.967Z,17.50
2018-05-25T02:56:40.990Z,17.50
2018-05-25T02:57:41.011Z,17.47
2018-05-25T02:58:41.048Z,17.48
2018-05-25T02:59:41.059Z,17.32
2018-05-25T03:00:41.082Z,17.46
2018-05-25T03:01:41.139Z,17.43
2018-05-25T03:02:41.129Z,17.32
2018-05-25T03:03:41.157Z,17.29
2018-05-25T03:04:41.179Z,17.28
2018-05-25T03:05:41.202Z,17.33
2018-05-25T03:06:41.234Z,17.46
2018-05-25T03:07:41.252Z,17.36
2018-05-25T03:08:41.272Z,17.33
2018-05-25T03:09:41.294Z,17.47
2018-05-25T03:10:41.323Z,17.38
2018-05-25T03:11:41.349Z,17.25
2018-05-25T03:12:41.370Z,17.29
2018-05-25T03:13:41.404Z,17.35
2018-05-25T03:14:41.418Z,17.44
2018-05-25T03:15:41.437Z,17.22
2018-05-25T03:16:41.466Z,17.29
2018-05-25T03:17:41.483Z,17.11
2018-05-25T03:18:41.565Z,17.13
2018-05-25T03:19:41.538Z,17.22
2018-05-25T03:20:41.556Z,17.22
2018-05-25T03:21:41.583Z,17.20
2018-05-25T03:22:41.611Z,16.92
2018-05-25T03:23:41.640Z,16.96
2018-05-25T03:24:41.651Z,17.06
2018-05-25T03:25:41.681Z,17.14
2018-05-25T03:26:41.711Z,17.18
2018-05-25T03:27:41.721Z,17.25
2018-05-25T03:28:41.753Z,17.15
2018-05-25T03:29:41.771Z,17.28
2018-05-25T03:30:41.817Z,17.33
2018-05-25T03:31:41.824Z,17.30
2018-05-25T03:32:41.851Z,17.28
2018-05-25T03:33:41.866Z,17.29
2018-05-25T03:34:41.895Z,17.35
2018-05-25T03:35:41.913Z,17.30
2018-05-25T03:36:41.937Z,17.22
2018-05-25T03:37:41.958Z,17.32
2018-05-25T03:38:41.990Z,17.13
2018-05-25T03:39:42.009Z,17.11
2018-05-25T03:40:42.037Z,17.08
2018-05-25T03:41:42.055Z,17.11
2018-05-25T03:42:42.083Z,17.14
2018-05-25T03:43:42.100Z,17.10
2018-05-25T03:44:42.137Z,16.96
2018-05-25T03:45:42.153Z,17.04
2018-05-25T03:46:42.179Z,16.99
2018-05-25T03:47:42.199Z,17.15
2018-05-25T03:48:42.219Z,17.17
2018-05-25T03:49:42.248Z,17.11
2018-05-25T03:50:42.270Z,17.11
2018-05-25T03:51:42.288Z,17.15
2018-05-25T03:52:42.323Z,17.18
2018-05-25T03:53:42.345Z,17.25
2018-05-25T03:54:42.364Z,17.28
2018-05-25T03:55:42.429Z,17.13
2018-05-25T03:56:42.411Z,17.17
2018-05-25T03:57:42.431Z,17.10
2018-05-25T03:58:42.465Z,17.17
2018-05-25T03:59:42.471Z,17.17
2018-05-25T04:00:42.506Z,17.11
2018-05-25T04:01:42.566Z,17.10
2018-05-25T04:02:42.551Z,17.11
2018-05-25T04:03:42.577Z,17.00
2018-05-25T04:04:42.594Z,17.03
2018-05-25T04:05:42.616Z,17.04
2018-05-25T04:06:42.655Z,17.00
2018-05-25T04:07:42.668Z,16.92
2018-05-25T04:08:42.693Z,17.07
2018-05-25T04:09:42.713Z,17.14
2018-05-25T04:10:42.734Z,17.10
2018-05-25T04:11:42.761Z,17.10
2018-05-25T04:12:42.785Z,17.10
2018-05-25T04:13:42.814Z,17.08
2018-05-25T04:14:42.842Z,17.07
2018-05-25T04:15:42.860Z,17.13
2018-05-25T04:16:42.878Z,17.15
2018-05-25T04:17:42.904Z,17.13
2018-05-25T04:18:42.925Z,17.13
2018-05-25T04:19:42.954Z,17.11
2018-05-25T04:20:42.981Z,17.10
2018-05-25T04:21:42.999Z,17.14
2018-05-25T04:22:43.039Z,17.11
2018-05-25T04:23:43.045Z,17.17
2018-05-25T04:24:43.071Z,17.11
2018-05-25T04:25:43.091Z,17.20
2018-05-25T04:26:43.117Z,17.26
2018-05-25T04:27:43.149Z,17.03
2018-05-25T04:28:43.169Z,17.03
2018-05-25T04:29:43.188Z,16.95
2018-05-25T04:30:43.216Z,17.10
2018-05-25T04:31:43.231Z,17.07
2018-05-25T04:32:43.259Z,17.06
2018-05-25T04:33:43.276Z,17.15
2018-05-25T04:34:43.298Z,17.15
2018-05-25T04:35:43.543Z,17.20
2018-05-25T04:36:43.353Z,17.07
2018-05-25T04:37:43.373Z,17.23
2018-05-25T04:38:43.391Z,17.29
2018-05-25T04:39:43.417Z,17.20
2018-05-25T04:40:43.471Z,17.33
2018-05-25T04:41:43.524Z,17.22
2018-05-25T04:42:43.509Z,17.30
2018-05-25T04:43:44.238Z,17.17
2018-05-25T04:44:43.540Z,17.20
2018-05-25T04:45:43.565Z,17.22
2018-05-25T04:46:43.589Z,17.33
2018-05-25T04:47:43.600Z,17.28
2018-05-25T04:48:43.631Z,17.25
2018-05-25T04:49:43.659Z,17.44
2018-05-25T04:50:43.680Z,17.41
2018-05-25T04:51:43.702Z,17.40
2018-05-25T04:52:43.719Z,17.44
2018-05-25T04:53:43.746Z,17.32
2018-05-25T04:54:43.778Z,17.41
2018-05-25T04:55:43.793Z,17.43
2018-05-25T04:56:43.819Z,17.36
2018-05-25T04:57:43.842Z,17.35
2018-05-25T04:58:43.866Z,17.46
2018-05-25T04:59:43.885Z,17.46
2018-05-25T05:00:43.915Z,17.44
2018-05-25T05:01:43.943Z,17.51
2018-05-25T05:02:43.961Z,17.50
2018-05-25T05:03:43.981Z,17.51
2018-05-25T05:04:44.025Z,17.54
2018-05-25T05:05:44.072Z,17.54
2018-05-25T05:06:44.056Z,17.51
2018-05-25T05:07:44.080Z,17.54
2018-05-25T05:08:44.107Z,17.57
2018-05-25T05:09:44.125Z,17.57
2018-05-25T05:10:44.149Z,17.53
2018-05-25T05:11:44.177Z,17.44
2018-05-25T05:12:44.195Z,17.55
2018-05-25T05:13:44.226Z,17.63
2018-05-25T05:14:44.256Z,17.59
2018-05-25T05:15:44.266Z,17.57
2018-05-25T05:16:44.289Z,17.62
2018-05-25T05:17:44.314Z,17.51
2018-05-25T05:18:44.344Z,17.55
2018-05-25T05:19:44.365Z,17.40
2018-05-25T05:20:44.395Z,17.55
2018-05-25T05:21:44.409Z,17.57
2018-05-25T05:22:44.442Z,17.67
2018-05-25T05:23:44.457Z,17.71
2018-05-25T05:24:44.485Z,17.64
2018-05-25T05:25:44.513Z,17.70
2018-05-25T05:26:44.534Z,17.73
2018-05-25T05:27:44.555Z,17.76
2018-05-25T05:28:44.573Z,17.71
2018-05-25T05:29:44.642Z,17.78
2018-05-25T05:30:44.632Z,17.74
2018-05-25T05:31:44.652Z,17.82
2018-05-25T05:32:44.680Z,17.73
2018-05-25T05:33:44.693Z,17.81
2018-05-25T05:34:44.718Z,17.91
2018-05-25T05:35:44.742Z,17.94
2018-05-25T05:36:44.777Z,18.02
2018-05-25T05:37:44.795Z,17.95
2018-05-25T05:38:44.816Z,18.07
2018-05-25T05:39:44.838Z,18.06
2018-05-25T05:40:44.862Z,18.06
2018-05-25T05:41:44.886Z,18.00
2018-05-25T05:42:44.914Z,18.06
2018-05-25T05:43:44.932Z,18.07
2018-05-25T05:44:44.959Z,18.10
2018-05-25T05:45:44.976Z,18.17
2018-05-25T05:46:45.010Z,18.17
2018-05-25T05:47:45.049Z,18.21
2018-05-25T05:48:45.055Z,18.21
2018-05-25T05:49:45.085Z,18.18
2018-05-25T05:50:45.102Z,18.21
2018-05-25T05:51:45.127Z,18.25
2018-05-25T05:52:45.149Z,18.29
2018-05-25T05:53:45.174Z,18.29
2018-05-25T05:54:45.211Z,18.31
2018-05-25T05:55:45.220Z,18.29
2018-05-25T05:56:45.245Z,18.28
2018-05-25T05:57:45.271Z,18.33
2018-05-25T05:58:45.287Z,18.40
2018-05-25T05:59:45.318Z,18.52
2018-05-25T06:00:45.340Z,18.54
2018-05-25T06:01:45.370Z,18.54
2018-05-25T06:02:45.394Z,18.52
2018-05-25T06:03:45.412Z,18.49
2018-05-25T06:04:45.435Z,18.55
2018-05-25T06:05:45.463Z,18.54
2018-05-25T06:06:45.489Z,18.50
2018-05-25T06:07:45.515Z,18.57
2018-05-25T06:08:45.535Z,18.57
2018-05-25T06:09:45.559Z,18.67
2018-05-25T06:10:45.582Z,18.58
2018-05-25T06:11:45.612Z,18.49
2018-05-25T06:12:45.634Z,18.55
2018-05-25T06:13:45.659Z,18.67
2018-05-25T06:14:45.681Z,18.62
2018-05-25T06:15:45.703Z,18.70
2018-05-25T06:16:45.732Z,18.67
2018-05-25T06:17:45.752Z,18.70
2018-05-25T06:18:45.779Z,18.73
2018-05-25T06:19:45.803Z,18.80
2018-05-25T06:20:45.825Z,18.91
2018-05-25T06:21:45.849Z,18.87
2018-05-25T06:22:45.873Z,18.87
2018-05-25T06:23:45.900Z,18.95
2018-05-25T06:24:45.926Z,18.94
2018-05-25T06:25:45.956Z,18.91
2018-05-25T06:26:45.976Z,18.97
2018-05-25T06:27:45.999Z,18.98
2018-05-25T06:28:46.018Z,18.86
2018-05-25T06:29:46.053Z,18.84
2018-05-25T06:30:46.076Z,18.97
2018-05-25T06:31:46.100Z,19.01
2018-05-25T06:32:46.120Z,18.97
2018-05-25T06:33:46.274Z,18.97
2018-05-25T06:34:46.217Z,19.13
2018-05-25T06:35:46.195Z,19.08
2018-05-25T06:36:46.223Z,18.97
2018-05-25T06:37:46.276Z,18.97
2018-05-25T06:38:46.270Z,19.08
2018-05-25T06:39:46.295Z,19.18
2018-05-25T06:40:46.320Z,19.15
2018-05-25T06:41:46.343Z,19.21
2018-05-25T06:42:46.368Z,19.21
2018-05-25T06:43:46.394Z,19.28
2018-05-25T06:44:46.415Z,19.23
2018-05-25T06:45:46.449Z,19.23
2018-05-25T06:46:46.467Z,19.32
2018-05-25T06:47:46.497Z,19.23
2018-05-25T06:48:46.519Z,19.25
2018-05-25T06:49:46.536Z,19.35
2018-05-25T06:50:46.592Z,19.23
2018-05-25T06:51:46.591Z,19.28
2018-05-25T06:52:46.617Z,19.36
2018-05-25T06:53:46.642Z,19.35
2018-05-25T06:54:46.662Z,19.24
2018-05-25T06:55:46.693Z,19.24
2018-05-25T06:56:46.713Z,19.13
2018-05-25T06:57:46.787Z,19.28
2018-05-25T06:58:46.764Z,19.36
2018-05-25T06:59:46.790Z,19.43
2018-05-25T07:00:46.818Z,19.47
2018-05-25T07:01:46.841Z,19.48
2018-05-25T07:02:46.869Z,19.48
2018-05-25T07:03:46.892Z,19.54
2018-05-25T07:04:46.917Z,19.51
2018-05-25T07:05:46.949Z,19.57
2018-05-25T07:06:46.968Z,19.53
2018-05-25T07:07:46.995Z,19.51
2018-05-25T07:08:47.017Z,19.51
2018-05-25T07:09:47.043Z,19.53
2018-05-25T07:10:47.074Z,19.55
2018-05-25T07:11:47.095Z,19.61
2018-05-25T07:12:47.111Z,19.61
2018-05-25T07:13:47.164Z,19.61
2018-05-25T07:14:47.174Z,19.72
2018-05-25T07:15:47.194Z,19.66
2018-05-25T07:16:47.223Z,19.70
2018-05-25T07:17:47.240Z,19.68
2018-05-25T07:18:47.271Z,19.86
2018-05-25T07:19:47.298Z,19.72
2018-05-25T07:20:47.317Z,19.86
2018-05-25T07:21:47.340Z,19.90
2018-05-25T07:22:47.371Z,19.87
2018-05-25T07:23:47.388Z,19.93
2018-05-25T07:24:47.414Z,19.93
2018-05-25T07:25:47.442Z,19.86
2018-05-25T07:26:47.487Z,19.86
2018-05-25T07:27:47.504Z,19.88
2018-05-25T07:28:47.521Z,19.87
2018-05-25T07:29:47.548Z,19.94
2018-05-25T07:30:47.580Z,19.98
2018-05-25T07:31:47.595Z,19.91
2018-05-25T07:32:47.620Z,19.91
2018-05-25T07:33:47.653Z,19.88
2018-05-25T07:34:47.669Z,19.98
2018-05-25T07:35:47.704Z,20.02
2018-05-25T07:36:47.725Z,20.08
2018-05-25T07:37:47.754Z,20.05
2018-05-25T07:38:47.819Z,20.12
2018-05-25T07:39:47.801Z,20.15
2018-05-25T07:40:47.831Z,20.21
2018-05-25T07:41:47.857Z,20.18
2018-05-25T07:42:47.872Z,20.15
2018-05-25T07:43:47.913Z,20.18
2018-05-25T07:44:47.925Z,20.21
2018-05-25T07:45:47.947Z,20.28
2018-05-25T07:46:47.979Z,20.20
2018-05-25T07:47:48.002Z,20.28
2018-05-25T07:48:48.030Z,20.23
2018-05-25T07:49:48.053Z,20.24
2018-05-25T07:50:48.076Z,20.25
2018-05-25T07:51:48.103Z,20.24
2018-05-25T07:52:48.137Z,20.27
2018-05-25T07:53:48.155Z,20.25
2018-05-25T07:54:48.193Z,20.10
2018-05-25T07:55:48.209Z,20.18
2018-05-25T07:56:48.241Z,20.24
2018-05-25T07:57:48.261Z,20.34
2018-05-25T07:58:48.291Z,20.47
2018-05-25T07:59:48.323Z,20.49
2018-05-25T08:00:48.341Z,20.54
2018-05-25T08:01:48.373Z,20.56
2018-05-25T08:02:48.393Z,20.53
2018-05-25T08:03:48.417Z,20.56
2018-05-25T08:04:48.439Z,20.49
2018-05-25T08:05:48.465Z,20.49
2018-05-25T08:06:48.492Z,20.59
2018-05-25T08:07:48.519Z,20.66
2018-05-25T08:08:48.599Z,20.72
2018-05-25T08:09:48.570Z,20.59
2018-05-25T08:10:48.611Z,20.66
2018-05-25T08:11:48.632Z,20.71
2018-05-25T08:12:48.646Z,20.65
2018-05-25T08:13:48.670Z,20.66
2018-05-25T08:14:48.699Z,20.68
2018-05-25T08:15:48.727Z,20.69
2018-05-25T08:16:48.746Z,20.76
2018-05-25T08:17:48.773Z,20.66
2018-05-25T08:18:48.807Z,20.66
2018-05-25T08:19:48.827Z,20.66
2018-05-25T08:20:48.855Z,20.74
2018-05-25T08:21:48.909Z,20.76
2018-05-25T08:22:48.911Z,20.81
2018-05-25T08:23:48.936Z,20.87
2018-05-25T08:24:48.959Z,20.76
2018-05-25T08:25:48.994Z,20.74
2018-05-25T08:26:49.013Z,20.83
2018-05-25T08:27:49.036Z,20.96
2018-05-25T08:28:49.060Z,20.98
2018-05-25T08:29:49.086Z,20.89
2018-05-25T08:30:49.112Z,20.95
2018-05-25T08:31:49.149Z,20.98
2018-05-25T08:32:49.162Z,20.96
2018-05-25T08:33:49.208Z,21.04
2018-05-25T08:34:49.224Z,21.01
2018-05-25T08:35:49.243Z,20.98
2018-05-25T08:36:49.283Z,20.90
2018-05-25T08:37:49.297Z,20.95
2018-05-25T08:38:49.319Z,20.96
2018-05-25T08:39:49.352Z,21.04
2018-05-25T08:40:49.387Z,21.06
2018-05-25T08:41:49.406Z,21.04
2018-05-25T08:42:49.428Z,21.08
2018-05-25T08:43:49.451Z,21.14
2018-05-25T08:44:49.483Z,21.13
2018-05-25T08:45:49.512Z,21.16
2018-05-25T08:46:49.534Z,21.08
2018-05-25T08:47:49.559Z,21.14
2018-05-25T08:48:49.585Z,21.19
2018-05-25T08:49:49.617Z,21.24
2018-05-25T08:50:49.643Z,21.44
2018-05-25T08:51:49.665Z,21.54
2018-05-25T08:52:49.707Z,21.46
2018-05-25T08:53:49.724Z,21.39
2018-05-25T08:54:49.744Z,21.44
2018-05-25T08:55:49.774Z,21.48
2018-05-25T08:56:49.801Z,21.54
2018-05-25T08:57:49.825Z,21.72
2018-05-25T08:58:49.840Z,21.64
2018-05-25T08:59:49.878Z,21.61
2018-05-25T09:00:49.909Z,21.61
2018-05-25T09:01:49.926Z,21.67
2018-05-25T09:02:49.967Z,21.64
2018-05-25T09:03:49.976Z,21.69
2018-05-25T09:04:50.003Z,21.69
2018-05-25T09:05:50.038Z,21.74
2018-05-25T09:06:50.099Z,21.61
2018-05-25T09:07:50.086Z,21.50
2018-05-25T09:08:50.110Z,21.57
2018-05-25T09:09:50.140Z,21.74
2018-05-25T09:10:50.181Z,21.75
2018-05-25T09:11:50.183Z,21.79
2018-05-25T09:12:50.217Z,21.78
2018-05-25T09:13:50.247Z,21.78
2018-05-25T09:14:50.268Z,21.78
2018-05-25T09:15:50.301Z,21.83
2018-05-25T09:16:50.322Z,21.91
2018-05-25T09:17:50.347Z,21.94
2018-05-25T09:18:50.387Z,21.91
2018-05-25T09:19:50.398Z,21.97
2018-05-25T09:20:50.441Z,21.81
2018-05-25T09:21:50.507Z,21.95
2018-05-25T09:22:50.482Z,21.99
2018-05-25T09:23:50.513Z,22.10
2018-05-25T09:24:50.543Z,22.25
2018-05-25T09:25:50.571Z,22.22
2018-05-25T09:26:50.594Z,22.31
2018-05-25T09:27:50.618Z,22.27
2018-05-25T09:28:50.648Z,22.13
2018-05-25T09:29:50.677Z,21.99
2018-05-25T09:30:50.713Z,21.99
2018-05-25T09:31:50.730Z,22.07
2018-05-25T09:32:50.749Z,22.01
2018-05-25T09:33:50.777Z,22.01
2018-05-25T09:34:50.806Z,22.07
2018-05-25T09:35:50.829Z,22.14
2018-05-25T09:36:50.858Z,22.22
2018-05-25T09:37:50.882Z,22.31
2018-05-25T09:38:50.921Z,22.41
2018-05-25T09:39:50.941Z,22.39
2018-05-25T09:40:50.972Z,22.43
2018-05-25T09:41:50.996Z,22.34
2018-05-25T09:42:51.049Z,22.44
2018-05-25T09:43:51.075Z,22.37
2018-05-25T09:44:51.079Z,22.56
2018-05-25T09:45:51.105Z,22.60
2018-05-25T09:46:51.135Z,22.53
2018-05-25T09:47:51.153Z,22.41
2018-05-25T09:48:51.240Z,22.41
2018-05-25T09:49:51.213Z,22.31
2018-05-25T09:50:51.241Z,22.14
2018-05-25T09:51:51.257Z,22.13
2018-05-25T09:52:51.294Z,22.06
2018-05-25T09:53:51.315Z,22.02
2018-05-25T09:54:51.352Z,22.07
2018-05-25T09:55:51.376Z,21.94
2018-05-25T09:56:51.409Z,21.90
2018-05-25T09:57:51.429Z,21.91
2018-05-25T09:58:51.455Z,21.90
2018-05-25T09:59:51.474Z,21.91
2018-05-25T10:00:51.523Z,21.91
2018-05-25T10:01:51.535Z,21.78
2018-05-25T10:02:51.561Z,21.94
2018-05-25T10:03:51.602Z,22.02
2018-05-25T10:04:51.618Z,22.09
2018-05-25T10:05:51.640Z,22.09
2018-05-25T10:06:51.672Z,22.20
2018-05-25T10:07:51.745Z,22.35
2018-05-25T10:08:51.724Z,22.53
2018-05-25T10:09:51.754Z,22.68
2018-05-25T10:10:51.778Z,22.67
2018-05-25T10:11:51.811Z,22.77
2018-05-25T10:12:51.827Z,22.82
2018-05-25T10:13:51.867Z,22.84
2018-05-25T10:14:51.893Z,22.86
2018-05-25T10:15:51.911Z,22.86
2018-05-25T10:16:51.936Z,22.78
2018-05-25T10:17:52.011Z,22.83
2018-05-25T10:18:51.988Z,22.87
2018-05-25T10:19:52.020Z,22.86
2018-05-25T10:20:52.050Z,22.89
2018-05-25T10:21:52.082Z,23.01
2018-05-25T10:22:52.102Z,23.11
2018-05-25T10:23:52.132Z,23.19
2018-05-25T10:24:52.171Z,23.05
2018-05-25T10:25:52.192Z,23.04
2018-05-25T10:26:52.220Z,22.97
2018-05-25T10:27:52.242Z,23.12
2018-05-25T10:28:52.264Z,22.99
2018-05-25T10:29:52.292Z,23.09
2018-05-25T10:30:52.325Z,23.04
2018-05-25T10:31:52.346Z,23.09
2018-05-25T10:32:52.380Z,23.11
2018-05-25T10:33:52.402Z,23.26
2018-05-25T10:34:52.433Z,23.31
2018-05-25T10:35:52.460Z,23.29
2018-05-25T10:36:52.495Z,23.20
2018-05-25T10:37:52.516Z,23.17
2018-05-25T10:38:52.548Z,23.19
2018-05-25T10:39:52.569Z,23.12
2018-05-25T10:40:52.595Z,23.12
2018-05-25T10:41:52.625Z,23.20
2018-05-25T10:42:52.652Z,23.24
2018-05-25T10:43:52.683Z,23.39
2018-05-25T10:44:52.707Z,23.45
2018-05-25T10:45:52.733Z,23.55
2018-05-25T10:46:52.769Z,23.47
2018-05-25T10:47:52.793Z,23.46
2018-05-25T10:48:52.821Z,23.62
2018-05-25T10:49:52.913Z,23.72
2018-05-25T10:50:52.872Z,23.64
2018-05-25T10:51:52.898Z,23.64
2018-05-25T10:52:52.927Z,23.65
2018-05-25T10:53:52.960Z,23.58
2018-05-25T10:54:52.986Z,23.61
2018-05-25T10:55:53.026Z,23.68
2018-05-25T10:56:53.042Z,23.50
2018-05-25T10:57:53.066Z,23.46
2018-05-25T10:58:53.092Z,23.42
2018-05-25T10:59:53.116Z,23.35
2018-05-25T11:00:53.152Z,23.45
2018-05-25T11:01:53.175Z,23.42
2018-05-25T11:02:53.206Z,23.49
2018-05-25T11:03:53.245Z,23.60
2018-05-25T11:04:53.268Z,23.64
2018-05-25T11:05:53.291Z,23.70
2018-05-25T11:06:53.314Z,23.52
2018-05-25T11:07:53.349Z,23.64
2018-05-25T11:08:53.377Z,23.60
2018-05-25T11:09:53.409Z,23.50
2018-05-25T11:10:53.433Z,23.53
2018-05-25T11:11:53.455Z,23.49
2018-05-25T11:12:53.483Z,23.49
2018-05-25T11:13:53.519Z,23.46
2018-05-25T11:14:53.542Z,23.60
2018-05-25T11:15:53.565Z,23.55
2018-05-25T11:16:53.598Z,23.62
2018-05-25T11:17:53.621Z,23.52
2018-05-25T11:18:53.663Z,23.55
2018-05-25T11:19:53.685Z,23.55
2018-05-25T11:20:53.728Z,23.67
2018-05-25T11:21:53.747Z,23.67
2018-05-25T11:22:53.769Z,23.71
2018-05-25T11:23:53.797Z,23.75
2018-05-25T11:24:53.834Z,23.65
2018-05-25T11:25:53.858Z,23.64
2018-05-25T11:26:53.873Z,23.70
2018-05-25T11:27:53.903Z,23.72
2018-05-25T11:28:53.930Z,23.72
2018-05-25T11:29:53.959Z,23.86
2018-05-25T11:30:53.987Z,24.16
2018-05-25T11:31:54.017Z,24.16
2018-05-25T11:32:54.045Z,24.12
2018-05-25T11:33:54.076Z,24.17
2018-05-25T11:34:54.106Z,24.19
2018-05-25T11:35:54.127Z,24.34
2018-05-25T11:36:54.161Z,24.38
2018-05-25T11:37:54.211Z,24.44
2018-05-25T11:38:54.218Z,24.42
2018-05-25T11:39:54.244Z,24.39
2018-05-25T11:40:54.267Z,24.31
2018-05-25T11:41:54.301Z,24.24
2018-05-25T11:42:54.324Z,24.22
2018-05-25T11:43:54.353Z,24.19
2018-05-25T11:44:54.386Z,24.26
2018-05-25T11:45:54.414Z,24.32
2018-05-25T11:46:54.449Z,24.31
2018-05-25T11:47:54.497Z,24.39
2018-05-25T11:48:54.496Z,24.45
2018-05-25T11:49:54.524Z,24.39
2018-05-25T11:50:54.549Z,24.45
2018-05-25T11:51:54.626Z,24.56
2018-05-25T11:52:54.640Z,24.57
2018-05-25T11:53:54.641Z,24.52
2018-05-25T11:54:54.666Z,24.59
2018-05-25T11:55:54.705Z,24.59
2018-05-25T11:56:54.724Z,24.64
2018-05-25T11:57:54.755Z,24.79
2018-05-25T11:58:54.787Z,24.90
2018-05-25T11:59:54.813Z,24.79
2018-05-25T12:00:54.839Z,24.80
2018-05-25T12:01:54.866Z,24.73
2018-05-25T12:02:54.899Z,24.63
2018-05-25T12:03:54.932Z,24.79
2018-05-25T12:04:54.950Z,24.87
2018-05-25T12:05:54.976Z,24.91
2018-05-25T12:06:55.009Z,25.06
2018-05-25T12:07:55.056Z,25.05
2018-05-25T12:08:55.083Z,25.10
2018-05-25T12:09:55.112Z,25.24
2018-05-25T12:10:55.131Z,25.27
2018-05-25T12:11:55.151Z,25.25
2018-05-25T12:12:55.179Z,25.22
2018-05-25T12:13:55.218Z,25.24
2018-05-25T12:14:55.239Z,25.28
2018-05-25T12:15:55.339Z,25.34
2018-05-25T12:16:55.298Z,25.30
2018-05-25T12:17:55.329Z,25.32
2018-05-25T12:18:55.362Z,25.34
2018-05-25T12:19:55.379Z,25.25
2018-05-25T12:20:55.408Z,25.07
2018-05-25T12:21:55.437Z,25.09
2018-05-25T12:22:55.468Z,25.22
2018-05-25T12:23:55.499Z,25.42
2018-05-25T12:24:55.541Z,25.47
2018-05-25T12:25:55.563Z,25.22
2018-05-25T12:26:55.594Z,25.02
2018-05-25T12:27:55.610Z,25.15
2018-05-25T12:28:55.639Z,25.17
2018-05-25T12:29:55.676Z,25.27
2018-05-25T12:30:55.703Z,25.31
2018-05-25T12:31:55.735Z,25.28
2018-05-25T12:32:55.761Z,25.31
2018-05-25T12:33:55.785Z,25.42
2018-05-25T12:34:55.818Z,25.44
2018-05-25T12:35:55.847Z,25.56
2018-05-25T12:36:55.873Z,25.54
2018-05-25T12:37:55.902Z,25.74
2018-05-25T12:38:55.934Z,25.80
2018-05-25T12:39:55.964Z,25.84
2018-05-25T12:40:55.992Z,25.98
2018-05-25T12:41:56.023Z,25.99
2018-05-25T12:42:56.109Z,26.02
2018-05-25T12:43:56.082Z,25.98
2018-05-25T12:44:56.109Z,26.01
2018-05-25T12:45:56.135Z,25.84
2018-05-25T12:46:56.168Z,25.72
2018-05-25T12:47:56.195Z,25.50
2018-05-25T12:48:56.258Z,25.34
2018-05-25T12:49:56.252Z,25.22
2018-05-25T12:50:56.287Z,25.22
2018-05-25T12:51:56.310Z,25.32
2018-05-25T12:52:56.347Z,25.52